createdAt,value
2022-07-29T00:04:21.448Z,1002.914
2022-07-29T00:34:38.728Z,1002.648
2022-07-29T01:04:54.688Z,1002.584
2022-07-29T01:35:13.056Z,1002.5260000000001
2022-07-29T02:05:28.129Z,1002.385
2022-07-29T02:35:45.433Z,1001.922
2022-07-29T03:06:01.282Z,1001.878
2022-07-29T03:36:18.031Z,1001.822
2022-07-29T04:06:36.437Z,1001.8589999999999
2022-07-29T04:36:53.627Z,1002.189
2022-07-29T05:07:12.258Z,1002.0889999999999
2022-07-29T05:37:32.798Z,1002.1339999999999
2022-07-29T06:07:58.884Z,1002.3380000000001
2022-07-29T06:38:34.058Z,1002.324
2022-07-29T07:08:51.079Z,1002.459
2022-07-29T07:39:16.526Z,1002.703
2022-07-29T08:09:41.938Z,1002.615
2022-07-29T08:40:04.161Z,1002.716
2022-07-29T09:10:25.773Z,1002.6510000000001
2022-07-29T09:40:50.760Z,1002.541
2022-07-29T10:11:01.682Z,1002.5060000000001
2022-07-29T10:41:27.111Z,1002.398
2022-07-29T11:11:55.780Z,1002.19
2022-07-29T11:42:28.250Z,1002.061
2022-07-29T12:12:46.890Z,1001.952
2022-07-29T12:43:04.193Z,1001.689
2022-07-29T13:13:15.877Z,1001.6469999999999
2022-07-29T13:43:24.644Z,1001.752
2022-07-29T14:13:35.467Z,1001.789
2022-07-29T14:43:49.195Z,1001.686
2022-07-29T15:14:05.590Z,1002.2
2022-07-29T15:44:16.778Z,1002.1160000000001
2022-07-29T16:14:35.319Z,1001.715
2022-07-29T16:44:57.404Z,1001.878
2022-07-29T17:15:12.071Z,1002.4780000000001
2022-07-29T17:45:26.250Z,1002.6
2022-07-29T18:16:00.216Z,1002.822
2022-07-29T18:46:17.770Z,1003.2810000000001
2022-07-29T19:16:35.470Z,1003.75
2022-07-29T19:46:53.077Z,1004.283
2022-07-29T20:17:10.030Z,1004.419
2022-07-29T20:47:27.620Z,1004.423
2022-07-29T21:17:45.189Z,1004.57
2022-07-29T21:48:03.461Z,1004.3739999999999
2022-07-29T22:18:21.026Z,1004.528
2022-07-29T22:48:39.364Z,1004.768
2022-07-29T23:18:57.597Z,1004.945
2022-07-29T23:49:15.511Z,1004.7919999999999
